Time;durP1;ratioP1;P1;durP2;ratioP2;P2;SDS_P1;SDS_P2;PMS_P1;PMS_P2;Temp;Humidity;BMP_temperature;BMP_pressure;BME280_temperature;BME280_humidity;BME280_pressure;Samples;Min_cycle;Max_cycle;Signal;HPM_P1;HPM_P2
2023/09/10 00:02:09;;;;;;;18.63;16.73;;;;;;;18.36;100.00;101798.34;6249216;22;20027;-79
2023/09/10 00:04:35;;;;;;;20.40;16.48;;;;;;;18.32;100.00;101796.59;6248567;22;20040;-79
2023/09/10 00:07:02;;;;;;;17.95;16.15;;;;;;;18.32;100.00;101791.19;6249866;22;20023;-80
2023/09/10 00:09:29;;;;;;;17.45;15.30;;;;;;;18.28;100.00;101797.97;6222706;22;20044;-79
2023/09/10 00:11:55;;;;;;;17.88;15.40;;;;;;;18.27;100.00;101797.25;6224302;22;20017;-79
2023/09/10 00:14:22;;;;;;;15.80;14.07;;;;;;;18.26;100.00;101798.44;6222448;22;20040;-79
2023/09/10 00:16:48;;;;;;;17.52;14.43;;;;;;;18.25;100.00;101798.91;6250628;22;20451;-79
2023/09/10 00:19:15;;;;;;;15.98;14.38;;;;;;;18.23;100.00;101799.38;6222722;22;20047;-79
2023/09/10 00:21:42;;;;;;;16.02;14.10;;;;;;;18.19;100.00;101790.75;6250297;22;20020;-79
2023/09/10 00:24:11;;;;;;;15.68;14.18;;;;;;;18.17;100.00;101795.84;6223556;22;20013;-79
2023/09/10 00:26:37;;;;;;;16.48;14.80;;;;;;;18.17;100.00;101795.09;6223638;22;20012;-79
2023/09/10 00:29:04;;;;;;;15.43;13.98;;;;;;;18.14;100.00;101796.78;6250797;22;20017;-79
2023/09/10 00:31:34;;;;;;;16.35;14.85;;;;;;;18.14;100.00;101796.03;6222984;22;20468;-79
2023/09/10 00:34:02;;;;;;;16.85;15.35;;;;;;;18.12;100.00;101793.06;6249601;22;20082;-79
2023/09/10 00:36:28;;;;;;;24.05;15.65;;;;;;;18.08;100.00;101792.50;6249891;22;20538;-79
2023/09/10 00:38:55;;;;;;;16.67;14.60;;;;;;;18.04;100.00;101787.31;6223557;22;20079;-79
2023/09/10 00:41:22;;;;;;;17.17;15.45;;;;;;;18.04;100.00;101790.00;6222763;22;20017;-80
2023/09/10 00:43:49;;;;;;;16.25;14.55;;;;;;;18.01;100.00;101788.25;6250743;22;20024;-79
2023/09/10 00:46:17;;;;;;;15.65;14.20;;;;;;;17.98;100.00;101789.19;6250291;22;20095;-80
2023/09/10 00:48:44;;;;;;;16.15;14.63;;;;;;;17.94;100.00;101794.78;6249954;22;20017;-79
2023/09/10 00:51:11;;;;;;;16.00;14.45;;;;;;;17.94;100.00;101796.72;6250103;22;20092;-79
2023/09/10 00:53:40;;;;;;;16.70;14.73;;;;;;;17.93;100.00;101793.28;6222679;22;20027;-79
2023/09/10 00:56:06;;;;;;;14.82;13.52;;;;;;;17.91;100.00;101792.25;6222998;22;20021;-79
2023/09/10 00:58:33;;;;;;;15.95;14.20;;;;;;;17.90;100.00;101791.50;6250405;22;20067;-79
2023/09/10 01:01:01;;;;;;;18.33;15.38;;;;;;;17.90;100.00;101791.50;6250551;22;20419;-80
2023/09/10 01:03:30;;;;;;;17.23;15.55;;;;;;;17.90;100.00;101798.84;6221780;22;20122;-80
2023/09/10 01:05:57;;;;;;;16.55;15.02;;;;;;;17.88;100.00;101793.94;6223020;22;20477;-79
2023/09/10 01:08:24;;;;;;;19.02;15.95;;;;;;;17.86;100.00;101785.56;6249650;22;20076;-80
2023/09/10 01:10:55;;;;;;;17.27;15.52;;;;;;;17.86;100.00;101787.53;6250224;22;20462;-80
2023/09/10 01:13:52;;;;;;;17.33;15.68;;;;;;;17.86;100.00;101798.28;6249809;22;20024;-80
2023/09/10 01:16:27;;;;;;;16.85;15.32;;;;;;;17.83;100.00;101801.91;6222412;22;20013;-80
2023/09/10 01:19:03;;;;;;;18.33;16.52;;;;;;;17.82;100.00;101795.03;6250022;22;20464;-80
2023/09/10 01:21:51;;;;;;;18.63;16.80;;;;;;;17.79;100.00;101795.97;6249396;22;20020;-80
2023/09/10 01:24:38;;;;;;;18.67;16.92;;;;;;;17.74;100.00;101791.97;6249906;22;20016;-80
2023/09/10 01:27:05;;;;;;;17.83;15.70;;;;;;;17.72;100.00;101799.75;6223595;22;20013;-80
2023/09/10 01:29:33;;;;;;;19.75;15.68;;;;;;;17.71;100.00;101790.19;6249761;22;20457;-79
2023/09/10 01:32:05;;;;;;;18.27;15.90;;;;;;;17.70;100.00;101791.41;6249825;22;20056;-80
2023/09/10 01:34:36;;;;;;;19.10;16.35;;;;;;;17.67;100.00;101795.75;6249823;22;20059;-80
2023/09/10 01:37:15;;;;;;;;;;;;;;;17.69;100.00;101795.31;6250435;22;20021;-80
2023/09/10 01:39:44;;;;;;;17.98;15.68;;;;;;;17.66;100.00;101801.59;6249844;22;19927;-79
2023/09/10 01:42:12;;;;;;;17.40;15.70;;;;;;;17.61;100.00;101797.59;6250249;22;20021;-80
2023/09/10 01:44:41;;;;;;;17.90;16.05;;;;;;;17.60;100.00;101795.34;6249874;22;20450;-79
2023/09/10 01:47:08;;;;;;;17.38;15.80;;;;;;;17.59;100.00;101794.59;6249107;22;20017;-79
2023/09/10 01:49:35;;;;;;;17.60;15.80;;;;;;;17.59;100.00;101799.28;6222539;22;20451;-80
2023/09/10 01:52:02;;;;;;;18.20;16.48;;;;;;;17.58;100.00;101795.09;6222779;22;20482;-79
2023/09/10 01:54:29;;;;;;;18.10;16.17;;;;;;;17.54;100.00;101800.66;6249350;22;20016;-79
2023/09/10 01:56:56;;;;;;;18.17;16.25;;;;;;;17.53;100.00;101801.88;6250223;22;20088;-80
2023/09/10 01:59:23;;;;;;;16.55;14.85;;;;;;;17.52;100.00;101799.63;6221703;22;20104;-80
2023/09/10 02:01:49;;;;;;;18.17;16.33;;;;;;;17.50;100.00;101799.34;6222902;22;20025;-79
2023/09/10 02:04:16;;;;;;;18.50;16.63;;;;;;;17.46;100.00;101796.84;6249861;22;20524;-80
2023/09/10 02:06:43;;;;;;;20.30;18.17;;;;;;;17.45;100.00;101805.38;6249666;22;20019;-79
2023/09/10 02:09:09;;;;;;;18.08;16.35;;;;;;;17.45;100.00;101810.75;6249655;22;20013;-80
2023/09/10 02:11:36;;;;;;;19.38;17.38;;;;;;;17.42;100.00;101807.03;6249857;22;20025;-80
2023/09/10 02:14:03;;;;;;;20.08;18.00;;;;;;;17.41;100.00;101804.81;6249496;22;20028;-80
2023/09/10 02:16:29;;;;;;;21.50;19.45;;;;;;;17.43;100.00;101805.09;6222093;22;20100;-80
2023/09/10 02:18:56;;;;;;;20.98;19.00;;;;;;;17.40;100.00;101809.44;6250202;22;20044;-79
2023/09/10 02:21:22;;;;;;;22.45;19.90;;;;;;;17.40;100.00;101808.69;6222317;22;20075;-79
2023/09/10 02:23:49;;;;;;;22.92;20.42;;;;;;;17.39;100.00;101810.66;6250591;22;20013;-79
2023/09/10 02:26:16;;;;;;;23.38;20.60;;;;;;;17.36;100.00;101806.19;6249931;22;20071;-79
2023/09/10 02:28:42;;;;;;;22.73;20.48;;;;;;;17.35;100.00;101812.75;6248995;22;20067;-80
2023/09/10 02:31:09;;;;;;;22.42;19.77;;;;;;;17.35;100.00;101810.06;6248826;22;20023;-79
2023/09/10 02:33:36;;;;;;;21.75;19.65;;;;;;;17.34;100.00;101813.97;6249556;22;20430;-79
2023/09/10 02:36:03;;;;;;;22.60;20.40;;;;;;;17.32;100.00;101809.03;6249944;22;20009;-79
2023/09/10 02:38:31;;;;;;;25.58;20.77;;;;;;;17.32;100.00;101809.03;6248979;22;20023;-79
2023/09/10 02:40:59;;;;;;;23.02;20.75;;;;;;;17.31;100.00;101806.81;6249662;22;20020;-79
2023/09/10 02:43:26;;;;;;;24.80;22.10;;;;;;;17.31;100.00;101801.44;6196626;22;20021;-79
2023/09/10 02:45:53;;;;;;;27.50;22.85;;;;;;;17.30;100.00;101800.69;6222706;22;20095;-79
2023/09/10 02:48:20;;;;;;;25.83;22.45;;;;;;;17.29;100.00;101801.16;6221879;22;20024;-79
2023/09/10 02:50:47;;;;;;;25.50;22.77;;;;;;;17.27;100.00;101798.16;6222610;22;20111;-79
2023/09/10 02:53:14;;;;;;;25.73;22.65;;;;;;;17.26;100.00;101794.00;6197199;22;20021;-79
2023/09/10 02:55:40;;;;;;;24.33;21.10;;;;;;;17.22;100.00;101790.72;6222368;22;20020;-79
2023/09/10 02:58:07;;;;;;;25.90;20.52;;;;;;;17.20;100.00;101793.88;6221659;22;20020;-79
2023/09/10 03:00:33;;;;;;;23.02;20.40;;;;;;;17.19;100.00;101803.19;6222400;22;20075;-79
2023/09/10 03:03:00;;;;;;;23.25;20.67;;;;;;;17.19;100.00;101799.75;6249739;22;20088;-80
2023/09/10 03:05:31;;;;;;;23.27;20.42;;;;;;;17.19;100.00;101802.44;6249001;22;20016;-79
2023/09/10 03:07:58;;;;;;;21.55;19.42;;;;;;;17.19;100.00;101805.13;6222316;22;20035;-79
2023/09/10 03:10:24;;;;;;;22.42;19.70;;;;;;;17.16;100.00;101798.72;6221850;22;20021;-79
2023/09/10 03:12:51;;;;;;;23.17;19.85;;;;;;;17.15;100.00;101796.50;6222016;22;20017;-79
2023/09/10 03:15:18;;;;;;;22.25;19.75;;;;;;;17.14;100.00;101793.06;6222140;22;20016;-79
2023/09/10 03:17:45;;;;;;;22.25;20.05;;;;;;;17.13;100.00;101798.88;6222659;22;20020;-78
2023/09/10 03:20:11;;;;;;;22.30;20.00;;;;;;;17.12;100.00;101784.69;6249350;22;20027;-79
2023/09/10 03:22:38;;;;;;;22.13;19.77;;;;;;;17.11;100.00;101790.53;6197163;22;20021;-79
2023/09/10 03:25:05;;;;;;;21.15;18.83;;;;;;;17.09;100.00;101788.31;6222384;22;20417;-79
2023/09/10 03:27:32;;;;;;;21.52;19.42;;;;;;;17.08;100.00;101786.81;6221369;22;20024;-79
2023/09/10 03:29:59;;;;;;;20.50;18.52;;;;;;;17.04;100.00;101786.25;6197563;22;20378;-79
2023/09/10 03:32:26;;;;;;;21.05;18.85;;;;;;;17.05;100.00;101779.66;6221846;22;20016;-79
2023/09/10 03:34:53;;;;;;;20.08;18.25;;;;;;;17.05;100.00;101784.28;6249623;22;20028;-80
2023/09/10 03:37:19;;;;;;;20.80;18.60;;;;;;;17.03;100.00;101781.31;6221654;22;20016;-79
2023/09/10 03:39:46;;;;;;;21.40;19.15;;;;;;;17.02;100.00;101779.84;6221904;22;20485;-79
2023/09/10 03:42:16;;;;;;;21.00;18.85;;;;;;;17.00;100.00;101777.59;6221465;22;20510;-79
2023/09/10 03:44:43;;;;;;;20.73;18.60;;;;;;;17.00;100.00;101781.03;6197048;22;20013;-79
2023/09/10 03:47:09;;;;;;;21.38;19.20;;;;;;;16.97;100.00;101779.25;6196934;22;20548;-79
2023/09/10 03:49:36;;;;;;;21.05;19.15;;;;;;;16.97;100.00;101773.13;6196797;22;20063;-79
2023/09/10 03:52:15;;;;;;;20.63;18.58;;;;;;;16.96;100.00;101782.41;6249174;22;20541;-79
2023/09/10 03:54:41;;;;;;;21.35;19.20;;;;;;;16.94;100.00;101776.75;6221997;22;20025;-79
2023/09/10 03:57:08;;;;;;;20.63;18.45;;;;;;;16.93;100.00;101767.19;6196339;22;20079;-79
2023/09/10 03:59:35;;;;;;;26.30;20.58;;;;;;;16.91;100.00;101783.78;6249316;22;20017;-79
2023/09/10 04:02:01;;;;;;;24.17;21.58;;;;;;;16.92;100.00;101781.84;6249578;22;20016;-79
2023/09/10 04:04:28;;;;;;;23.23;20.85;;;;;;;16.89;100.00;101783.50;6248672;22;20017;-80
2023/09/10 04:06:55;;;;;;;23.05;20.73;;;;;;;16.87;100.00;101780.50;6221639;22;20020;-78
2023/09/10 04:09:23;;;;;;;25.40;20.42;;;;;;;16.87;100.00;101780.50;6221430;22;20024;-77
2023/09/10 04:11:50;;;;;;;29.33;21.08;;;;;;;16.86;100.00;101781.72;6221486;22;20347;-78
2023/09/10 04:14:17;;;;;;;23.33;20.92;;;;;;;16.85;100.00;101771.41;6249003;22;20020;-78
2023/09/10 04:16:44;;;;;;;22.70;20.10;;;;;;;16.82;100.00;101777.69;6221606;22;20017;-78
2023/09/10 04:19:11;;;;;;;23.77;21.30;;;;;;;16.83;100.00;101784.56;6221522;22;20052;-78
2023/09/10 04:21:37;;;;;;;23.58;20.40;;;;;;;16.83;100.00;101774.56;6248938;22;20012;-78
2023/09/10 04:24:05;;;;;;;22.88;20.55;;;;;;;16.82;100.00;101781.13;6249261;22;20084;-77
2023/09/10 04:26:32;;;;;;;25.80;20.45;;;;;;;16.78;100.00;101777.91;6248076;22;20013;-78
2023/09/10 04:28:58;;;;;;;23.67;21.27;;;;;;;16.77;100.00;101779.09;6249123;22;20071;-78
2023/09/10 04:31:25;;;;;;;24.40;21.10;;;;;;;16.78;100.00;101777.16;6221199;22;20027;-78
2023/09/10 04:33:52;;;;;;;22.60;20.50;;;;;;;16.76;100.00;101780.31;6221811;22;20025;-77
2023/09/10 04:36:18;;;;;;;23.33;21.13;;;;;;;16.77;100.00;101778.34;6221446;22;20107;-77
2023/09/10 04:38:45;;;;;;;23.50;21.15;;;;;;;16.75;100.00;101776.13;6196032;22;20024;-78
2023/09/10 04:41:12;;;;;;;25.23;21.65;;;;;;;16.74;100.00;101781.97;6247520;22;20520;-77
2023/09/10 04:43:39;;;;;;;24.83;21.70;;;;;;;16.74;100.00;101781.97;6221099;22;20017;-77
2023/09/10 04:46:05;;;;;;;24.35;20.75;;;;;;;16.72;100.00;101784.34;6221389;22;20021;-79
2023/09/10 04:48:32;;;;;;;23.17;20.70;;;;;;;16.72;100.00;101782.41;6221305;22;20104;-77
2023/09/10 04:50:59;;;;;;;23.23;20.92;;;;;;;16.71;100.00;101786.31;6221633;22;20445;-80
2023/09/10 04:53:26;;;;;;;22.40;20.30;;;;;;;16.72;100.00;101787.03;6220707;22;20032;-79
2023/09/10 04:55:54;;;;;;;21.83;19.73;;;;;;;16.69;100.00;101780.63;6223081;22;20021;-79
2023/09/10 04:58:22;;;;;;;20.38;18.27;;;;;;;16.69;100.00;101785.25;6222231;22;20016;-79
2023/09/10 05:00:50;;;;;;;20.08;18.20;;;;;;;16.68;100.00;101787.22;6223129;22;20079;-79
2023/09/10 05:03:17;;;;;;;21.48;19.27;;;;;;;16.70;100.00;101786.75;6222768;22;20017;-79
2023/09/10 05:05:45;;;;;;;23.85;19.52;;;;;;;16.69;100.00;101788.69;6250121;22;20020;-80
2023/09/10 05:08:12;;;;;;;21.30;19.02;;;;;;;16.66;100.00;101787.66;6196889;22;20431;-79
2023/09/10 05:10:40;;;;;;;21.35;18.80;;;;;;;16.66;100.00;101787.66;6249699;22;20013;-79
2023/09/10 05:13:07;;;;;;;21.20;18.92;;;;;;;16.68;100.00;101792.59;6249677;22;20013;-79
2023/09/10 05:15:33;;;;;;;21.73;19.63;;;;;;;16.67;100.00;101789.16;6222601;22;20497;-79
2023/09/10 05:18:00;;;;;;;20.70;18.67;;;;;;;16.68;100.00;101795.28;6250281;22;20025;-80
2023/09/10 05:20:27;;;;;;;21.25;19.17;;;;;;;16.70;100.00;101800.19;6197187;22;20021;-79
2023/09/10 05:22:53;;;;;;;20.52;18.63;;;;;;;16.71;100.00;101797.06;6222882;22;20048;-79
2023/09/10 05:25:20;;;;;;;20.73;18.60;;;;;;;16.72;100.00;101795.84;6222117;22;20021;-79
2023/09/10 05:27:47;;;;;;;21.77;19.75;;;;;;;16.74;100.00;101788.06;6250703;22;20016;-79
2023/09/10 05:30:14;;;;;;;21.30;19.33;;;;;;;16.78;100.00;101790.59;6249978;22;20199;-79
2023/09/10 05:32:40;;;;;;;26.40;20.23;;;;;;;16.79;100.00;101794.78;6222927;22;20017;-79
2023/09/10 05:35:08;;;;;;;22.50;20.35;;;;;;;16.82;100.00;101797.28;6223018;22;20055;-86
2023/09/10 05:37:34;;;;;;;23.02;20.35;;;;;;;16.84;100.00;101797.56;6255217;22;20459;-78
2023/09/10 05:40:02;;;;;;;23.23;19.05;;;;;;;16.89;100.00;101794.25;6223083;22;20016;-76
2023/09/10 05:42:29;;;;;;;21.85;19.60;;;;;;;16.94;100.00;101796.31;6222585;22;20051;-77
2023/09/10 05:44:55;;;;;;;21.73;19.55;;;;;;;16.99;100.00;101792.25;6223575;22;20073;-77
2023/09/10 05:47:23;;;;;;;22.58;20.30;;;;;;;17.05;100.00;101793.09;6222332;22;20027;-75
2023/09/10 05:49:53;;;;;;;23.27;20.13;;;;;;;17.10;100.00;101789.03;6223039;22;20095;-76
2023/09/10 05:52:20;;;;;;;24.42;21.85;;;;;;;17.12;100.00;101798.16;6221716;22;20020;-76
2023/09/10 05:54:46;;;;;;;23.88;20.88;;;;;;;17.16;100.00;101797.97;6222528;22;20394;-76
2023/09/10 05:57:13;;;;;;;22.85;20.63;;;;;;;17.23;100.00;101802.97;6222394;22;20036;-76
2023/09/10 05:59:40;;;;;;;23.85;21.40;;;;;;;17.30;100.00;101795.31;6222695;22;20024;-76
2023/09/10 06:02:07;;;;;;;23.23;20.92;;;;;;;17.45;100.00;101800.00;6222707;22;20017;-76
2023/09/10 06:04:33;;;;;;;25.83;23.10;;;;;;;18.14;100.00;101806.81;6249799;22;20017;-76
2023/09/10 06:07:03;;;;;;;25.35;22.33;;;;;;;19.03;99.99;101804.66;6222455;22;20021;-76
2023/09/10 06:09:31;;;;;;;25.60;22.90;;;;;;;19.65;95.28;101801.41;6222493;22;20473;-77
2023/09/10 06:11:59;;;;;;;30.17;23.27;;;;;;;20.14;91.86;101808.47;6249928;22;20016;-77
2023/09/10 06:14:27;;;;;;;28.65;23.13;;;;;;;20.61;88.46;101812.47;6222158;22;20203;-77
2023/09/10 06:16:54;;;;;;;24.70;22.23;;;;;;;20.90;86.07;101805.97;6249923;22;20075;-77
2023/09/10 06:19:21;;;;;;;24.52;22.02;;;;;;;21.19;84.56;101812.25;6222310;22;20091;-76
2023/09/10 06:21:47;;;;;;;25.65;21.95;;;;;;;21.28;83.95;101812.03;6222248;22;20039;-76
2023/09/10 06:24:15;;;;;;;24.50;22.25;;;;;;;21.34;83.63;101820.91;6249632;22;20470;-78
2023/09/10 06:26:42;;;;;;;25.38;21.58;;;;;;;21.33;83.28;101816.00;6222174;22;20462;-76
2023/09/10 06:29:08;;;;;;;23.70;21.05;;;;;;;21.32;82.98;101817.97;6222929;22;20012;-74
2023/09/10 06:31:35;;;;;;;23.92;21.17;;;;;;;21.38;83.38;101816.00;6249820;22;20017;-76
2023/09/10 06:34:02;;;;;;;23.15;20.75;;;;;;;21.35;83.65;101818.94;6222746;22;20410;-75
2023/09/10 06:36:29;;;;;;;23.50;21.00;;;;;;;21.22;84.39;101820.13;6221519;22;20418;-75
2023/09/10 06:38:57;;;;;;;26.38;23.58;;;;;;;21.09;86.07;101821.81;6197698;22;20040;-75
2023/09/10 06:41:24;;;;;;;28.15;23.45;;;;;;;20.98;87.68;101828.66;6196854;22;20052;-75
2023/09/10 06:43:50;;;;;;;25.60;22.90;;;;;;;20.85;88.76;101831.03;6249663;22;20016;-75
2023/09/10 06:46:21;;;;;;;28.88;23.45;;;;;;;20.83;89.29;101824.63;6221653;22;20091;-75
2023/09/10 06:48:47;;;;;;;27.10;23.15;;;;;;;20.85;89.72;101831.03;6249691;22;20044;-75
2023/09/10 06:51:14;;;;;;;25.05;22.55;;;;;;;20.88;89.05;101827.38;6221696;22;20048;-77
2023/09/10 06:53:41;;;;;;;24.92;22.33;;;;;;;20.87;89.75;101830.56;6249533;22;20024;-77
2023/09/10 06:56:07;;;;;;;26.17;23.50;;;;;;;20.92;90.16;101829.84;6249459;22;20020;-76
2023/09/10 06:58:34;;;;;;;32.28;21.95;;;;;;;20.97;90.25;101827.16;6222781;22;20016;-75
2023/09/10 07:01:05;;;;;;;24.27;21.90;;;;;;;21.02;90.36;101833.09;6249656;22;20450;-77
2023/09/10 07:03:34;;;;;;;28.08;22.80;;;;;;;21.09;89.83;101827.22;6249250;22;20399;-76
2023/09/10 07:06:05;;;;;;;24.75;21.77;;;;;;;21.09;89.72;101830.66;6249247;22;20450;-76
2023/09/10 07:08:34;;;;;;;25.60;23.02;;;;;;;21.10;89.47;101834.84;6249300;22;20095;-76
2023/09/10 07:11:01;;;;;;;24.45;22.15;;;;;;;21.16;89.81;101832.91;6249899;22;20091;-77
2023/09/10 07:13:29;;;;;;;25.02;22.52;;;;;;;21.26;89.53;101834.19;6248958;22;20013;-76
2023/09/10 07:15:56;;;;;;;25.48;22.08;;;;;;;21.35;89.17;101833.22;6222235;22;20079;-77
2023/09/10 07:18:22;;;;;;;23.88;21.45;;;;;;;21.46;89.20;101833.28;6247802;22;20792;-76
2023/09/10 07:20:49;;;;;;;23.85;21.35;;;;;;;21.60;89.15;101836.97;6249064;22;20024;-77
2023/09/10 07:23:15;;;;;;;24.08;20.92;;;;;;;21.67;88.37;101838.47;6247931;22;20047;-77
2023/09/10 07:25:42;;;;;;;24.30;21.23;;;;;;;21.80;88.29;101842.19;6249122;22;20088;-78
2023/09/10 07:28:09;;;;;;;24.23;21.77;;;;;;;21.90;87.70;101839.97;6222489;22;20013;-76
2023/09/10 07:30:35;;;;;;;30.50;21.70;;;;;;;21.99;86.85;101833.59;6249192;22;20024;-76
2023/09/10 07:33:02;;;;;;;25.52;22.90;;;;;;;22.06;87.41;101835.81;6248914;22;20457;-76
2023/09/10 07:35:28;;;;;;;27.02;23.33;;;;;;;22.13;87.08;101840.75;6221593;22;20513;-78
2023/09/10 07:37:55;;;;;;;27.35;22.98;;;;;;;22.24;86.79;101843.44;6249815;22;20040;-75
2023/09/10 07:40:22;;;;;;;24.83;22.33;;;;;;;22.38;87.48;101842.47;6196412;22;20105;-76
2023/09/10 07:42:50;;;;;;;24.77;22.33;;;;;;;22.48;86.67;101842.91;6249682;22;20016;-75
2023/09/10 07:45:16;;;;;;;30.38;24.65;;;;;;;22.62;85.77;101842.66;6248907;22;20016;-76
2023/09/10 07:47:43;;;;;;;27.65;24.63;;;;;;;22.77;85.40;101849.78;6221619;22;20017;-77
2023/09/10 07:50:10;;;;;;;28.80;25.70;;;;;;;22.86;83.72;101846.78;6248917;22;20021;-76
2023/09/10 07:52:37;;;;;;;27.50;24.52;;;;;;;22.97;83.77;101846.03;6248953;22;20837;-77
2023/09/10 07:55:04;;;;;;;29.55;26.05;;;;;;;23.10;83.96;101833.38;6249241;22;20031;-78
2023/09/10 07:57:30;;;;;;;29.95;25.85;;;;;;;23.23;83.35;101843.66;6221949;22;20425;-77
2023/09/10 07:59:57;;;;;;;32.08;26.13;;;;;;;23.39;83.41;101850.25;6249632;22;20017;-75
2023/09/10 08:02:26;;;;;;;34.03;26.23;;;;;;;23.50;81.79;101848.22;6248066;22;20012;-77
2023/09/10 08:04:53;;;;;;;29.58;26.45;;;;;;;23.59;82.10;101847.94;6249515;22;20024;-75
2023/09/10 08:07:20;;;;;;;29.85;26.70;;;;;;;23.69;81.63;101853.06;6248347;22;20069;-76
2023/09/10 08:09:47;;;;;;;32.05;27.25;;;;;;;23.82;82.18;101847.78;6249287;22;20013;-76
2023/09/10 08:12:13;;;;;;;30.38;27.33;;;;;;;23.97;80.43;101850.16;6222122;22;20431;-75
2023/09/10 08:14:41;;;;;;;30.08;26.90;;;;;;;24.06;79.86;101845.13;6248935;22;20482;-76
2023/09/10 08:17:07;;;;;;;29.45;26.65;;;;;;;24.15;79.08;101847.53;6248148;22;20012;-75
2023/09/10 08:19:34;;;;;;;34.33;28.70;;;;;;;24.25;77.94;101848.69;6222070;22;20470;-76
2023/09/10 08:22:00;;;;;;;31.15;27.80;;;;;;;24.34;78.59;101847.63;6249202;22;20040;-76
2023/09/10 08:24:27;;;;;;;29.60;26.65;;;;;;;24.48;79.28;101845.75;6248501;22;20145;-74
2023/09/10 08:26:53;;;;;;;41.30;27.95;;;;;;;24.66;78.16;101847.06;6222271;22;20024;-74
2023/09/10 08:29:20;;;;;;;31.20;27.75;;;;;;;24.70;77.04;101840.06;6248641;22;20458;-78
2023/09/10 08:31:47;;;;;;;28.92;25.77;;;;;;;24.80;77.03;101849.34;6222713;22;20013;-81
2023/09/10 08:34:13;;;;;;;30.08;26.80;;;;;;;24.90;75.71;101841.56;6250048;22;20013;-78
2023/09/10 08:36:40;;;;;;;30.48;27.25;;;;;;;25.05;74.58;101849.34;6249967;22;20016;-79
2023/09/10 08:39:06;;;;;;;29.88;26.65;;;;;;;25.16;74.78;101847.22;6249963;22;20020;-80
2023/09/10 08:42:13;;;;;;;31.77;25.90;;;;;;;25.34;74.83;101834.81;6249737;22;20084;-81
2023/09/10 08:44:43;;;;;;;30.40;27.20;;;;;;;25.43;72.61;101839.91;6249525;22;20091;-80
2023/09/10 08:47:14;;;;;;;31.95;27.63;;;;;;;25.49;72.12;101832.38;6248016;22;20020;-78
2023/09/10 08:49:43;;;;;;;29.23;25.98;;;;;;;25.61;71.95;101841.13;6222371;22;20020;-78
2023/09/10 08:52:10;;;;;;;33.88;27.38;;;;;;;25.69;71.03;101839.28;6249275;22;20013;-78
2023/09/10 08:54:37;;;;;;;31.13;27.42;;;;;;;25.79;71.49;101837.66;6249637;22;20017;-78
2023/09/10 08:57:05;;;;;;;33.90;26.52;;;;;;;25.94;69.90;101837.16;6249704;22;20023;-84
2023/09/10 08:59:32;;;;;;;31.45;26.08;;;;;;;26.03;69.34;101831.28;6249329;22;20016;-84
2023/09/10 09:01:59;;;;;;;30.60;27.33;;;;;;;26.12;68.28;101832.88;6249042;22;20017;-80
2023/09/10 09:04:26;;;;;;;32.30;27.23;;;;;;;26.30;69.16;101840.28;6249228;22;20476;-80
2023/09/10 09:06:57;;;;;;;30.73;27.40;;;;;;;26.53;67.50;101840.59;6249965;22;20447;-79
2023/09/10 09:09:29;;;;;;;29.15;25.58;;;;;;;26.69;66.66;101836.09;6249430;22;20013;-77
2023/09/10 09:11:56;;;;;;;33.60;23.80;;;;;;;26.89;69.06;101833.41;6249960;22;20565;-77
2023/09/10 09:14:24;;;;;;;29.02;25.52;;;;;;;27.10;67.71;101832.78;6248896;22;20478;-78
2023/09/10 09:16:52;;;;;;;29.08;24.08;;;;;;;27.25;66.14;101832.94;6249698;22;20416;-78
2023/09/10 09:19:21;;;;;;;30.30;24.08;;;;;;;27.43;65.82;101825.84;6248844;22;20036;-79
2023/09/10 09:21:49;;;;;;;35.35;25.30;;;;;;;27.58;63.14;101831.44;6249779;22;20447;-78
2023/09/10 09:24:16;;;;;;;28.65;23.70;;;;;;;27.69;62.73;101830.47;6249475;22;20017;-84
2023/09/10 09:26:43;;;;;;;30.08;23.23;;;;;;;27.82;62.28;101828.38;6249359;22;20013;-79
2023/09/10 09:29:10;;;;;;;27.00;24.00;;;;;;;27.98;62.17;101814.84;6249111;22;20016;-81
2023/09/10 09:31:37;;;;;;;27.75;22.67;;;;;;;28.10;60.32;101824.22;6222073;22;20016;-81
2023/09/10 09:34:04;;;;;;;29.20;21.15;;;;;;;28.21;60.36;101826.69;6250703;22;20020;-83
2023/09/10 09:36:36;;;;;;;25.70;21.45;;;;;;;28.39;59.57;101822.25;6249381;22;20088;-88
2023/09/10 09:39:07;;;;;;;27.98;21.77;;;;;;;28.42;59.37;101816.38;6260987;22;20788;-88
2023/09/10 09:41:35;;;;;;;24.58;21.92;;;;;;;28.48;58.32;101816.97;6248952;22;20450;-85
2023/09/10 09:44:02;;;;;;;29.08;21.45;;;;;;;28.55;58.29;101816.28;6249617;22;20059;-79
2023/09/10 09:46:31;;;;;;;24.63;22.00;;;;;;;28.61;57.43;101813.38;6248853;22;20019;-81
2023/09/10 09:48:58;;;;;;;25.20;21.08;;;;;;;28.62;57.45;101814.13;6223123;22;20063;-82
2023/09/10 09:51:24;;;;;;;24.60;18.90;;;;;;;28.70;59.11;101820.38;6248830;22;20091;-80
2023/09/10 09:53:52;;;;;;;27.00;18.02;;;;;;;28.84;57.48;101816.97;6249892;22;20454;-86
2023/09/10 09:56:21;;;;;;;21.60;18.75;;;;;;;28.97;57.16;101807.88;6250163;22;20023;-83
2023/09/10 09:58:48;;;;;;;23.98;21.45;;;;;;;29.12;56.65;101804.47;6249788;22;20017;-88
2023/09/10 10:01:14;;;;;;;31.60;19.58;;;;;;;29.07;57.40;101805.34;6250376;22;20013;-87
2023/09/10 10:03:41;;;;;;;32.60;18.50;;;;;;;29.15;57.18;101801.34;6249825;22;20402;-78
2023/09/10 10:06:09;;;;;;;20.60;17.25;;;;;;;29.26;56.39;101797.50;6249395;22;20443;-78
2023/09/10 10:08:37;;;;;;;32.63;19.65;;;;;;;29.31;55.39;101801.38;6249866;22;20019;-78
2023/09/10 10:11:04;;;;;;;28.90;18.35;;;;;;;29.43;55.68;101799.78;6249570;22;20047;-79
2023/09/10 10:13:31;;;;;;;31.60;17.25;;;;;;;29.30;56.25;101797.88;6250206;22;20023;-81
2023/09/10 10:15:58;;;;;;;20.50;16.65;;;;;;;29.28;57.19;101794.97;6252669;22;20023;-81
2023/09/10 10:18:27;;;;;;;25.77;16.73;;;;;;;29.21;56.84;101793.66;6224419;22;20023;-79
2023/09/10 10:20:58;;;;;;;23.08;16.55;;;;;;;29.29;56.56;101790.94;6251833;22;20044;-80
2023/09/10 10:23:25;;;;;;;18.58;16.60;;;;;;;29.30;55.93;101783.44;6223921;22;20053;-78
2023/09/10 10:25:53;;;;;;;20.15;17.30;;;;;;;29.32;56.02;101783.63;6252356;22;20506;-82
2023/09/10 10:28:21;;;;;;;26.85;17.65;;;;;;;29.32;55.94;101786.38;6249479;22;20042;-77
2023/09/10 10:31:18;;;;;;;18.13;14.85;;;;;;;29.40;57.09;101782.38;6251023;22;20040;-78
2023/09/10 10:34:24;;;;;;;19.85;16.25;;;;;;;29.40;56.75;101782.38;6220067;22;20493;-79
2023/09/10 10:37:05;;;;;;;22.13;16.48;;;;;;;29.45;56.83;101783.50;6250116;22;20200;-77
2023/09/10 10:39:41;;;;;;;23.92;16.70;;;;;;;29.45;56.46;101776.00;6221911;22;20020;-78
2023/09/10 10:42:10;;;;;;;22.70;16.27;;;;;;;29.46;56.88;101782.22;6248953;22;20012;-77
2023/09/10 10:44:38;;;;;;;18.63;16.55;;;;;;;29.45;55.81;101784.22;6249389;22;20024;-76
2023/09/10 10:47:13;;;;;;;18.38;15.77;;;;;;;29.49;56.60;101781.84;6249542;22;20013;-79
2023/09/10 10:49:49;;;;;;;22.63;16.58;;;;;;;29.45;56.29;101776.00;6249399;22;20017;-80
2023/09/10 10:52:20;;;;;;;26.40;15.63;;;;;;;29.46;56.57;101774.72;6248637;22;20711;-80
2023/09/10 10:54:50;;;;;;;18.48;15.85;;;;;;;29.49;55.48;101778.38;6222548;22;20025;-79
2023/09/10 10:57:17;;;;;;;17.88;14.30;;;;;;;29.42;55.09;101779.84;6221096;22;20030;-79
2023/09/10 10:59:44;;;;;;;22.48;14.05;;;;;;;29.48;55.77;101769.41;6249558;22;20016;-79
2023/09/10 11:02:22;;;;;;;21.60;14.27;;;;;;;29.56;56.02;101771.44;6249422;22;20583;-80
2023/09/10 11:04:55;;;;;;;17.85;12.82;;;;;;;29.62;56.73;101778.19;6197668;22;20441;-79
2023/09/10 11:07:22;;;;;;;19.02;13.70;;;;;;;29.65;54.96;101773.59;6248866;22;20012;-80
2023/09/10 11:09:49;;;;;;;20.67;12.95;;;;;;;29.61;56.07;101779.47;6222592;22;20411;-79